createdAt,value
2023-04-30T00:02:21.320Z,25.43
2023-04-30T00:04:48.164Z,25.90
2023-04-30T00:07:14.948Z,23.13
2023-04-30T00:09:41.844Z,25.43
2023-04-30T00:12:08.823Z,25.73
2023-04-30T00:14:36.478Z,26.77
2023-04-30T00:17:03.366Z,26.97
2023-04-30T00:19:30.106Z,26.60
2023-04-30T00:21:56.892Z,27.63
2023-04-30T00:24:23.723Z,28.27
2023-04-30T00:26:50.474Z,28.07
2023-04-30T00:29:17.244Z,27.70
2023-04-30T00:31:44.065Z,26.80
2023-04-30T00:34:10.968Z,25.90
2023-04-30T00:36:38.234Z,26.63
2023-04-30T00:39:06.029Z,27.27
2023-04-30T00:41:35.063Z,27.73
2023-04-30T00:44:06.521Z,27.93
2023-04-30T00:46:33.400Z,28.80
2023-04-30T00:49:04.685Z,31.17
2023-04-30T00:51:35.679Z,29.93
2023-04-30T00:54:05.877Z,30.03
2023-04-30T00:56:33.486Z,28.87
2023-04-30T00:59:00.386Z,27.80
2023-04-30T01:01:31.800Z,28.27
2023-04-30T01:03:58.827Z,27.77
2023-04-30T01:06:27.013Z,29.23
2023-04-30T01:08:54.363Z,26.17
2023-04-30T01:11:26.268Z,25.47
2023-04-30T01:14:11.512Z,26.13
2023-04-30T01:16:52.848Z,25.90
2023-04-30T01:19:28.623Z,25.67
2023-04-30T01:22:01.509Z,26.83
2023-04-30T01:24:50.334Z,26.20
2023-04-30T01:27:54.293Z,26.87
2023-04-30T01:30:22.669Z,25.73
2023-04-30T01:32:49.539Z,24.63
2023-04-30T01:35:16.453Z,24.80
2023-04-30T01:38:03.573Z,24.30
2023-04-30T01:40:44.463Z,26.27
2023-04-30T01:43:21.106Z,25.93
2023-04-30T01:45:57.066Z,29.13
2023-04-30T01:48:36.022Z,26.57
2023-04-30T01:51:14.581Z,27.43
2023-04-30T01:53:43.885Z,28.03
2023-04-30T01:56:18.388Z,28.10
2023-04-30T01:58:47.682Z,28.77
2023-04-30T02:01:44.786Z,26.63
2023-04-30T02:04:11.742Z,25.43
2023-04-30T02:06:38.633Z,27.47
2023-04-30T02:09:06.988Z,26.30
2023-04-30T02:11:33.748Z,26.80
2023-04-30T02:14:00.645Z,29.63
2023-04-30T02:16:27.547Z,27.67
2023-04-30T02:18:54.429Z,28.60
2023-04-30T02:21:21.307Z,29.07
2023-04-30T02:23:48.221Z,29.03
2023-04-30T02:26:15.072Z,30.10
2023-04-30T02:28:42.423Z,30.47
2023-04-30T02:31:11.397Z,28.93
2023-04-30T02:33:38.424Z,31.50
2023-04-30T02:36:05.502Z,30.77
2023-04-30T02:38:32.367Z,30.73
2023-04-30T02:40:59.211Z,32.23
2023-04-30T02:43:26.000Z,29.07
2023-04-30T02:45:52.796Z,31.07
2023-04-30T02:48:19.669Z,28.60
2023-04-30T02:50:46.510Z,28.20
2023-04-30T02:53:13.373Z,28.33
2023-04-30T02:55:40.649Z,27.07
2023-04-30T02:58:07.406Z,27.27
2023-04-30T03:00:34.476Z,27.90
2023-04-30T03:03:01.449Z,25.53
2023-04-30T03:05:28.726Z,24.87
2023-04-30T03:07:55.981Z,25.97
2023-04-30T03:10:22.794Z,25.53
2023-04-30T03:12:49.594Z,24.97
2023-04-30T03:15:18.076Z,27.30
2023-04-30T03:17:46.276Z,28.57
2023-04-30T03:20:14.313Z,28.17
2023-04-30T03:22:41.801Z,27.40
2023-04-30T03:25:10.512Z,26.83
2023-04-30T03:27:37.258Z,28.07
2023-04-30T03:30:04.922Z,26.97
2023-04-30T03:32:32.375Z,28.23
2023-04-30T03:34:59.623Z,27.67
2023-04-30T03:37:26.823Z,27.07
2023-04-30T03:39:53.853Z,29.10
2023-04-30T03:42:21.282Z,30.63
2023-04-30T03:44:48.294Z,26.70
2023-04-30T03:47:15.453Z,26.23
2023-04-30T03:49:42.282Z,27.77
2023-04-30T03:52:09.353Z,27.83
2023-04-30T03:54:36.462Z,25.73
2023-04-30T03:57:04.464Z,27.03
2023-04-30T03:59:32.632Z,29.67
2023-04-30T04:02:01.708Z,30.33
2023-04-30T04:04:30.017Z,29.27
2023-04-30T04:06:57.060Z,27.60
2023-04-30T04:09:23.828Z,30.40
2023-04-30T04:11:50.663Z,28.07
2023-04-30T04:14:17.509Z,27.93
2023-04-30T04:16:44.818Z,27.30
2023-04-30T04:19:13.279Z,28.93
2023-04-30T04:21:40.287Z,28.17
2023-04-30T04:24:13.763Z,29.07
2023-04-30T04:26:41.378Z,29.70
2023-04-30T04:29:09.876Z,30.87
2023-04-30T04:31:38.822Z,31.00
2023-04-30T04:34:05.844Z,28.80
2023-04-30T04:36:34.110Z,28.17
2023-04-30T04:39:04.835Z,26.57
2023-04-30T04:41:33.074Z,27.30
2023-04-30T04:44:01.725Z,29.10
2023-04-30T04:46:29.823Z,29.27
2023-04-30T04:48:57.632Z,30.20
2023-04-30T04:51:25.582Z,29.83
2023-04-30T04:53:52.429Z,29.60
2023-04-30T04:56:19.972Z,30.23
2023-04-30T04:58:47.548Z,31.53
2023-04-30T05:01:14.637Z,30.57
2023-04-30T05:03:41.691Z,31.90
2023-04-30T05:06:09.018Z,35.27
2023-04-30T05:08:36.330Z,33.57
2023-04-30T05:11:03.353Z,34.67
2023-04-30T05:13:30.198Z,32.77
2023-04-30T05:15:57.072Z,31.13
2023-04-30T05:18:23.907Z,33.13
2023-04-30T05:20:50.696Z,34.50
2023-04-30T05:23:17.538Z,34.00
2023-04-30T05:25:44.368Z,33.63
2023-04-30T05:28:11.479Z,35.50
2023-04-30T05:30:38.336Z,34.67
2023-04-30T05:33:05.129Z,37.70
2023-04-30T05:35:35.923Z,34.83
2023-04-30T05:38:03.689Z,36.47
2023-04-30T05:40:30.831Z,37.80
2023-04-30T05:42:57.750Z,36.47
2023-04-30T05:45:24.958Z,36.77
2023-04-30T05:47:51.947Z,37.73
2023-04-30T05:50:18.872Z,35.17
2023-04-30T05:52:46.647Z,35.93
2023-04-30T05:55:13.782Z,35.43
2023-04-30T05:57:40.635Z,36.10
2023-04-30T06:00:08.072Z,36.20
2023-04-30T06:02:41.256Z,35.43
2023-04-30T06:05:08.893Z,35.23
2023-04-30T06:07:35.785Z,35.73
2023-04-30T06:10:03.721Z,33.70
2023-04-30T06:12:30.906Z,34.90
2023-04-30T06:14:57.891Z,35.50
2023-04-30T06:17:24.725Z,34.10
2023-04-30T06:19:51.545Z,33.17
2023-04-30T06:22:18.361Z,32.30
2023-04-30T06:24:45.538Z,33.40
2023-04-30T06:27:12.389Z,33.20
2023-04-30T06:29:39.139Z,31.47
2023-04-30T06:32:08.392Z,31.43
2023-04-30T06:34:37.029Z,31.80
2023-04-30T06:37:03.892Z,30.73
2023-04-30T06:39:30.815Z,32.07
2023-04-30T06:41:57.661Z,30.70
2023-04-30T06:44:24.698Z,29.57
2023-04-30T06:46:52.331Z,28.63
2023-04-30T06:49:19.146Z,30.07
2023-04-30T06:51:45.940Z,33.27
2023-04-30T06:54:12.833Z,27.73
2023-04-30T06:56:39.611Z,27.60
2023-04-30T06:59:06.685Z,27.60
2023-04-30T07:01:33.618Z,26.97
2023-04-30T07:04:01.767Z,28.40
2023-04-30T07:06:28.936Z,29.17
2023-04-30T07:08:55.828Z,30.40
2023-04-30T07:11:23.416Z,29.50
2023-04-30T07:13:50.488Z,31.43
2023-04-30T07:16:17.380Z,26.80
2023-04-30T07:18:44.191Z,26.50
2023-04-30T07:21:11.489Z,28.83
2023-04-30T07:23:38.272Z,27.60
2023-04-30T07:26:05.269Z,25.77
2023-04-30T07:28:32.009Z,27.27
2023-04-30T07:30:58.796Z,25.73
2023-04-30T07:33:25.879Z,24.10
2023-04-30T07:35:54.489Z,25.83
2023-04-30T07:38:21.752Z,27.43
2023-04-30T07:40:48.661Z,25.07
2023-04-30T07:43:15.547Z,31.17
2023-04-30T07:45:42.994Z,25.07
2023-04-30T07:48:10.010Z,25.30
2023-04-30T07:50:37.254Z,25.10
2023-04-30T07:53:05.125Z,24.70
2023-04-30T07:55:32.076Z,26.27
2023-04-30T07:57:59.583Z,26.37
2023-04-30T08:00:26.544Z,26.33
2023-04-30T08:02:53.594Z,25.27
2023-04-30T08:05:20.528Z,24.20
2023-04-30T08:07:47.370Z,24.77
2023-04-30T08:10:14.280Z,22.70
2023-04-30T08:12:41.022Z,24.87
2023-04-30T08:15:08.291Z,23.93
2023-04-30T08:17:35.685Z,25.53
2023-04-30T08:20:04.617Z,23.33
2023-04-30T08:22:31.465Z,24.07
2023-04-30T08:24:58.271Z,20.47
2023-04-30T08:27:25.124Z,19.70
2023-04-30T08:29:51.909Z,19.87
2023-04-30T08:32:19.923Z,23.37
2023-04-30T08:34:46.825Z,20.07
2023-04-30T08:37:13.598Z,20.43
2023-04-30T08:39:40.577Z,19.87
2023-04-30T08:42:09.718Z,19.00
2023-04-30T08:44:43.525Z,19.53
2023-04-30T08:47:13.331Z,20.80
2023-04-30T08:49:41.194Z,18.87
2023-04-30T08:52:08.772Z,19.23
2023-04-30T08:54:36.949Z,19.23
2023-04-30T08:57:04.723Z,19.13
2023-04-30T08:59:31.775Z,18.57
2023-04-30T09:02:01.300Z,18.43
2023-04-30T09:04:28.529Z,17.57
2023-04-30T09:06:59.015Z,18.40
2023-04-30T09:09:30.728Z,19.20
2023-04-30T09:12:20.413Z,18.77
2023-04-30T09:15:02.314Z,18.57
2023-04-30T09:17:30.457Z,19.17
2023-04-30T09:20:13.109Z,18.50
2023-04-30T09:22:41.606Z,17.60
2023-04-30T09:25:09.976Z,16.93
2023-04-30T09:27:36.822Z,17.77
2023-04-30T09:30:05.577Z,17.07
2023-04-30T09:32:32.535Z,16.30
2023-04-30T09:34:59.348Z,16.77
2023-04-30T09:37:37.149Z,17.33
2023-04-30T09:40:04.549Z,16.00
2023-04-30T09:42:31.527Z,16.97
2023-04-30T09:44:58.494Z,17.03
2023-04-30T09:47:31.083Z,16.33
2023-04-30T09:50:00.636Z,16.77
2023-04-30T09:52:27.551Z,17.10
2023-04-30T09:54:54.556Z,17.03
2023-04-30T09:57:23.810Z,16.47
2023-04-30T09:59:52.700Z,17.40
2023-04-30T10:02:22.592Z,16.33
2023-04-30T10:04:56.376Z,16.70
2023-04-30T10:07:26.279Z,16.47
2023-04-30T10:10:02.605Z,16.83
2023-04-30T10:12:44.283Z,16.83
2023-04-30T10:15:39.297Z,17.00
2023-04-30T10:18:11.622Z,17.50
2023-04-30T10:20:40.010Z,16.70
2023-04-30T10:23:08.425Z,17.77
2023-04-30T10:25:38.382Z,15.73
2023-04-30T10:28:06.755Z,16.33
2023-04-30T10:30:35.703Z,19.37
2023-04-30T10:33:25.950Z,18.63
2023-04-30T10:36:06.460Z,18.47
2023-04-30T10:38:34.510Z,17.83
2023-04-30T10:41:02.478Z,15.93
2023-04-30T10:43:35.972Z,19.20
2023-04-30T10:46:04.219Z,19.00
2023-04-30T10:48:35.412Z,16.73
2023-04-30T10:51:02.209Z,16.30
2023-04-30T10:53:32.680Z,18.67
2023-04-30T10:56:01.255Z,17.37
2023-04-30T10:58:31.670Z,15.90
2023-04-30T11:01:12.103Z,19.43
2023-04-30T11:03:42.286Z,17.23
2023-04-30T11:06:14.694Z,17.40
2023-04-30T11:08:46.185Z,16.92
2023-04-30T11:11:18.641Z,17.65
2023-04-30T11:13:46.695Z,15.70
2023-04-30T11:16:15.983Z,17.00
2023-04-30T11:18:47.119Z,16.15
2023-04-30T11:21:14.429Z,16.20
2023-04-30T11:23:45.434Z,16.20
2023-04-30T11:26:12.438Z,15.07
2023-04-30T11:28:39.323Z,16.15
2023-04-30T11:31:06.245Z,15.00
2023-04-30T11:33:35.064Z,15.07
2023-04-30T11:36:02.769Z,14.90
2023-04-30T11:38:36.851Z,14.50
2023-04-30T11:41:04.713Z,14.25
2023-04-30T11:43:33.771Z,16.20
2023-04-30T11:46:12.161Z,13.48
2023-04-30T11:48:46.745Z,13.73
2023-04-30T11:51:26.963Z,13.15
2023-04-30T11:53:53.950Z,13.77
2023-04-30T11:56:25.653Z,15.65
2023-04-30T11:58:53.453Z,14.32
2023-04-30T12:01:21.134Z,14.30
2023-04-30T12:03:50.594Z,14.60
2023-04-30T12:06:26.021Z,14.88
2023-04-30T12:08:55.176Z,14.10
2023-04-30T12:11:25.868Z,14.52
2023-04-30T12:13:58.141Z,14.48
2023-04-30T12:16:25.801Z,14.73
2023-04-30T12:18:53.118Z,13.65
2023-04-30T12:21:22.929Z,13.45
2023-04-30T12:23:49.960Z,15.60
2023-04-30T12:26:17.851Z,13.30
2023-04-30T12:28:47.931Z,14.43
2023-04-30T12:31:14.718Z,13.25
2023-04-30T12:33:41.583Z,14.77
2023-04-30T12:36:11.229Z,14.68
2023-04-30T12:38:38.172Z,14.30
2023-04-30T12:41:05.278Z,14.00
2023-04-30T12:43:32.110Z,14.25
2023-04-30T12:45:58.954Z,13.73
2023-04-30T12:48:26.185Z,15.00
2023-04-30T12:51:02.771Z,14.75
2023-04-30T12:53:29.970Z,13.60
2023-04-30T12:56:12.984Z,13.60
2023-04-30T12:58:40.493Z,13.52
2023-04-30T13:01:11.786Z,13.40
2023-04-30T13:03:39.394Z,14.50
2023-04-30T13:06:07.262Z,13.70
2023-04-30T13:08:45.733Z,15.03
2023-04-30T13:11:17.143Z,14.87
2023-04-30T13:13:43.946Z,14.37
2023-04-30T13:16:10.880Z,15.47
2023-04-30T13:18:37.692Z,15.00
2023-04-30T13:21:04.517Z,14.67
2023-04-30T13:23:35.968Z,14.87
2023-04-30T13:26:08.232Z,14.00
2023-04-30T13:28:35.108Z,14.83
2023-04-30T13:31:02.728Z,14.53
2023-04-30T13:33:29.663Z,14.80
2023-04-30T13:35:56.393Z,15.70
2023-04-30T13:38:23.159Z,16.03
2023-04-30T13:40:50.177Z,16.20
2023-04-30T13:43:16.998Z,15.27
2023-04-30T13:45:43.841Z,17.13
2023-04-30T13:48:10.950Z,15.40
2023-04-30T13:50:37.869Z,17.13
2023-04-30T13:53:04.662Z,15.00
2023-04-30T13:55:32.905Z,15.10
2023-04-30T13:58:00.197Z,14.67
2023-04-30T14:00:27.142Z,16.30
2023-04-30T14:02:54.041Z,14.13
2023-04-30T14:05:21.007Z,14.47
2023-04-30T14:07:47.915Z,15.37
2023-04-30T14:10:14.714Z,15.80
2023-04-30T14:12:41.490Z,14.97
2023-04-30T14:15:08.506Z,15.90
2023-04-30T14:17:35.747Z,15.37
2023-04-30T14:20:02.920Z,14.77
2023-04-30T14:22:29.896Z,16.27
2023-04-30T14:24:56.646Z,14.70
2023-04-30T14:27:23.496Z,15.67
2023-04-30T14:29:50.356Z,17.07
2023-04-30T14:32:17.633Z,15.20
2023-04-30T14:34:44.707Z,16.87
2023-04-30T14:37:11.684Z,15.63
2023-04-30T14:39:38.519Z,14.70
2023-04-30T14:42:05.366Z,16.37
2023-04-30T14:44:32.467Z,15.23
2023-04-30T14:46:59.448Z,15.40
2023-04-30T14:49:27.747Z,15.17
2023-04-30T14:51:54.586Z,15.03
2023-04-30T14:54:21.409Z,16.03
2023-04-30T14:56:49.014Z,14.33
2023-04-30T14:59:15.991Z,14.70
2023-04-30T15:01:42.867Z,15.00
2023-04-30T15:04:09.842Z,15.00
2023-04-30T15:06:36.995Z,15.07
2023-04-30T15:09:04.239Z,16.50
2023-04-30T15:11:31.062Z,16.37
2023-04-30T15:13:57.841Z,14.50
2023-04-30T15:16:24.983Z,15.57
2023-04-30T15:18:52.329Z,15.77
2023-04-30T15:21:19.467Z,16.10
2023-04-30T15:23:46.396Z,16.00
2023-04-30T15:26:13.226Z,15.33
2023-04-30T15:28:40.067Z,16.70
2023-04-30T15:31:07.254Z,15.43
2023-04-30T15:33:39.676Z,16.50
2023-04-30T15:36:06.761Z,15.93
2023-04-30T15:38:34.021Z,16.07
2023-04-30T15:41:00.945Z,15.63
2023-04-30T15:43:29.774Z,16.23
2023-04-30T15:45:57.148Z,15.60
2023-04-30T15:48:24.064Z,15.50
2023-04-30T15:50:50.873Z,16.03
2023-04-30T15:53:17.796Z,16.70
2023-04-30T15:55:46.492Z,16.20
2023-04-30T15:58:13.309Z,16.13
2023-04-30T16:00:40.291Z,16.20
2023-04-30T16:03:07.461Z,15.47
2023-04-30T16:05:38.657Z,15.30
2023-04-30T16:08:08.149Z,16.30
2023-04-30T16:10:34.961Z,15.50
2023-04-30T16:13:01.847Z,15.97
2023-04-30T16:15:30.108Z,16.20
2023-04-30T16:17:57.311Z,15.77
2023-04-30T16:20:24.651Z,16.40
2023-04-30T16:22:52.647Z,16.70
2023-04-30T16:25:20.707Z,16.07
2023-04-30T16:27:47.556Z,16.40
2023-04-30T16:30:14.326Z,15.90
2023-04-30T16:32:41.281Z,16.07
2023-04-30T16:35:09.453Z,15.57
2023-04-30T16:37:36.401Z,15.13
2023-04-30T16:40:03.547Z,15.60
2023-04-30T16:42:30.878Z,15.30
2023-04-30T16:44:57.715Z,16.20
2023-04-30T16:47:24.549Z,15.77
2023-04-30T16:49:51.440Z,15.00
2023-04-30T16:52:19.026Z,15.30
2023-04-30T16:54:45.973Z,15.80
2023-04-30T16:57:12.749Z,16.00
2023-04-30T16:59:39.546Z,15.60
2023-04-30T17:02:07.085Z,14.90
2023-04-30T17:04:33.883Z,16.00
2023-04-30T17:07:00.799Z,15.40
2023-04-30T17:09:27.549Z,16.13
2023-04-30T17:11:54.289Z,15.13
2023-04-30T17:14:22.129Z,15.57
2023-04-30T17:16:48.925Z,15.33
2023-04-30T17:19:15.751Z,15.63
2023-04-30T17:21:42.553Z,15.70
2023-04-30T17:24:09.644Z,15.07
2023-04-30T17:26:36.973Z,15.60
2023-04-30T17:29:04.480Z,15.53
2023-04-30T17:31:31.360Z,15.60
2023-04-30T17:33:59.993Z,14.80
2023-04-30T17:36:28.837Z,14.73
2023-04-30T17:38:56.430Z,15.33
2023-04-30T17:41:24.173Z,14.90
2023-04-30T17:43:51.751Z,15.20
2023-04-30T17:46:18.795Z,15.73
2023-04-30T17:48:45.985Z,15.37
2023-04-30T17:51:12.879Z,15.13
2023-04-30T17:53:40.545Z,15.90
2023-04-30T17:56:08.856Z,15.90
2023-04-30T17:58:37.144Z,15.27
2023-04-30T18:01:06.494Z,15.83
2023-04-30T18:03:33.375Z,15.63
2023-04-30T18:06:00.306Z,16.77
2023-04-30T18:08:27.163Z,15.83
2023-04-30T18:10:54.706Z,15.43
2023-04-30T18:13:21.537Z,15.67
2023-04-30T18:15:48.793Z,15.43
2023-04-30T18:18:15.787Z,15.53
2023-04-30T18:20:42.751Z,15.40
2023-04-30T18:23:10.184Z,16.67
2023-04-30T18:25:37.314Z,16.53
2023-04-30T18:28:04.342Z,16.90
2023-04-30T18:30:31.614Z,15.90
2023-04-30T18:32:58.877Z,16.00
2023-04-30T18:35:27.086Z,16.00
2023-04-30T18:37:54.381Z,15.83
2023-04-30T18:40:21.466Z,15.57
2023-04-30T18:42:48.288Z,15.90
2023-04-30T18:45:15.486Z,16.43
2023-04-30T18:47:42.537Z,16.40
2023-04-30T18:50:13.492Z,16.30
2023-04-30T18:52:41.027Z,15.50
2023-04-30T18:55:08.514Z,16.53
2023-04-30T18:57:35.410Z,17.50
2023-04-30T19:00:02.446Z,15.90
2023-04-30T19:02:29.496Z,16.60
2023-04-30T19:04:56.465Z,15.67
2023-04-30T19:07:23.254Z,15.70
2023-04-30T19:09:51.857Z,15.27
2023-04-30T19:12:18.870Z,14.90
2023-04-30T19:14:45.859Z,15.70
2023-04-30T19:17:12.899Z,16.00
2023-04-30T19:19:40.274Z,15.90
2023-04-30T19:22:07.316Z,16.43
2023-04-30T19:24:34.087Z,15.03
2023-04-30T19:27:04.086Z,15.77
2023-04-30T19:29:31.288Z,15.87
2023-04-30T19:31:59.161Z,16.73
2023-04-30T19:34:29.015Z,16.57
2023-04-30T19:36:55.882Z,18.13
2023-04-30T19:39:23.161Z,19.17
2023-04-30T19:41:49.925Z,19.40
2023-04-30T19:44:18.273Z,18.70
2023-04-30T19:46:47.365Z,20.20
2023-04-30T19:49:14.481Z,20.20
2023-04-30T19:51:41.350Z,21.20
2023-04-30T19:54:13.877Z,20.20
2023-04-30T19:56:41.821Z,19.90
2023-04-30T19:59:09.702Z,21.53
2023-04-30T20:01:36.876Z,21.10
2023-04-30T20:04:04.026Z,21.83
2023-04-30T20:06:31.648Z,20.63
2023-04-30T20:08:59.794Z,20.83
2023-04-30T20:11:26.867Z,20.20
2023-04-30T20:13:56.673Z,20.70
2023-04-30T20:16:23.594Z,21.50
2023-04-30T20:18:50.437Z,22.27
2023-04-30T20:21:19.945Z,21.90
2023-04-30T20:23:47.737Z,21.03
2023-04-30T20:26:14.578Z,21.67
2023-04-30T20:28:41.420Z,22.50
2023-04-30T20:31:09.750Z,21.97
2023-04-30T20:33:36.646Z,23.27
2023-04-30T20:36:03.670Z,23.23
2023-04-30T20:38:31.023Z,22.73
2023-04-30T20:40:58.745Z,22.13
2023-04-30T20:43:25.574Z,23.90
2023-04-30T20:45:55.538Z,22.20
2023-04-30T20:48:22.370Z,23.57
2023-04-30T20:50:49.168Z,22.63
2023-04-30T20:53:16.068Z,21.43
2023-04-30T20:55:42.850Z,22.63
2023-04-30T20:58:09.913Z,21.93
2023-04-30T21:00:36.777Z,22.10
2023-04-30T21:03:04.129Z,22.23
2023-04-30T21:05:31.082Z,22.63
2023-04-30T21:08:01.678Z,22.80
2023-04-30T21:10:36.218Z,22.37
2023-04-30T21:13:08.798Z,23.47
2023-04-30T21:15:36.252Z,22.27
2023-04-30T21:18:03.449Z,22.17
2023-04-30T21:20:31.413Z,23.53
2023-04-30T21:22:58.432Z,22.40
2023-04-30T21:25:25.605Z,21.80
2023-04-30T21:27:52.508Z,20.90
2023-04-30T21:30:22.298Z,26.53
2023-04-30T21:32:50.743Z,24.47
2023-04-30T21:35:17.650Z,23.57
2023-04-30T21:37:44.467Z,25.03
2023-04-30T21:40:11.738Z,22.83
2023-04-30T21:42:38.595Z,24.90
2023-04-30T21:45:05.834Z,23.97
2023-04-30T21:47:32.624Z,22.17
2023-04-30T21:49:59.509Z,22.30
2023-04-30T21:52:26.404Z,22.87
2023-04-30T21:54:53.260Z,22.63
2023-04-30T21:57:20.200Z,22.23
2023-04-30T21:59:46.969Z,22.33
2023-04-30T22:02:23.703Z,22.83
2023-04-30T22:04:51.292Z,22.07
2023-04-30T22:07:18.220Z,22.17
2023-04-30T22:09:45.471Z,22.67
2023-04-30T22:12:12.305Z,24.03
2023-04-30T22:14:39.491Z,22.87
2023-04-30T22:17:06.622Z,21.20
2023-04-30T22:19:33.357Z,22.40
2023-04-30T22:22:00.252Z,21.20
2023-04-30T22:24:27.128Z,21.90
2023-04-30T22:26:54.732Z,22.67
2023-04-30T22:29:21.673Z,20.80
2023-04-30T22:31:48.981Z,21.20
2023-04-30T22:34:18.072Z,20.80
2023-04-30T22:36:45.923Z,21.37
2023-04-30T22:39:13.333Z,22.43
2023-04-30T22:41:40.606Z,21.77
2023-04-30T22:44:07.655Z,22.63
2023-04-30T22:46:36.649Z,21.53
2023-04-30T22:49:03.707Z,21.03
2023-04-30T22:51:31.610Z,20.87
2023-04-30T22:53:58.557Z,22.27
2023-04-30T22:56:25.422Z,21.90
2023-04-30T22:58:52.284Z,22.87
2023-04-30T23:01:20.065Z,22.83
2023-04-30T23:03:47.128Z,23.03
2023-04-30T23:06:14.511Z,21.90
2023-04-30T23:08:41.315Z,22.73
2023-04-30T23:11:08.074Z,21.60
2023-04-30T23:13:34.899Z,22.90
2023-04-30T23:16:05.312Z,22.33
2023-04-30T23:18:32.400Z,20.93
2023-04-30T23:20:59.252Z,21.83
2023-04-30T23:23:27.247Z,21.93
2023-04-30T23:25:55.691Z,21.30
2023-04-30T23:28:24.427Z,22.40
2023-04-30T23:30:52.184Z,21.37
2023-04-30T23:33:19.779Z,21.57
2023-04-30T23:35:47.539Z,23.40
2023-04-30T23:38:15.004Z,22.37
2023-04-30T23:40:42.441Z,20.93
2023-04-30T23:43:10.338Z,22.53
2023-04-30T23:45:43.325Z,21.67
2023-04-30T23:48:10.488Z,22.20
2023-04-30T23:50:40.269Z,21.53
2023-04-30T23:53:07.690Z,21.87
2023-04-30T23:55:34.946Z,23.37
2023-04-30T23:58:01.757Z,25.43
